Terminal Aerodrome Forecast
Issued by NWS

Home | Current Version | Previous Version | Text Only | Print | Product List | Glossary On
Versions: 1 2 3 4 5 6 7 8 9 10 11 12 13 14
000
FTUS45 KFGZ 032320
TAFGCN
TAF
KGCN 032320Z 0400/0424 22013G22KT P6SM FEW070 SCT100
     FM040130 VRB05KT P6SM FEW080 SCT180
     FM041800 21011G18KT P6SM FEW060 SCT200=

USA.gov is the U.S. government's official web portal to all federal, state and local government web resources and services.